Time;durP1;ratioP1;P1;durP2;ratioP2;P2;SDS_P1;SDS_P2;PMS_P1;PMS_P2;Temp;Humidity;BMP_temperature;BMP_pressure;BME280_temperature;BME280_humidity;BME280_pressure;Samples;Min_cycle;Max_cycle;Signal;HPM_P1;HPM_P2
2022/11/06 00:02:15;;;;;;;;;;;;;;;4.92;52.02;95658.06;4984339;28;20073;-71
2022/11/06 00:04:40;;;;;;;;;;;;;;;4.16;53.17;95657.78;4984859;28;20447;-70
2022/11/06 00:07:06;;;;;;;;;;;;;;;3.78;54.34;95654.09;4991617;28;20367;-69
2022/11/06 00:09:32;;;;;;;;;;;;;;;4.66;53.36;95644.63;4989666;28;19977;-69
2022/11/06 00:11:57;;;;;;;;;;;;;;;4.73;52.84;95647.53;4985143;28;20093;-69
2022/11/06 00:14:23;;;;;;;;;;;;;;;3.86;54.43;95654.25;4993809;28;19974;-70
2022/11/06 00:16:48;;;;;;;;;;;;;;;4.12;55.30;95645.03;4990320;28;20362;-71
2022/11/06 00:19:13;;;;;;;;;;;;;;;5.05;52.54;95638.44;4991973;28;19993;-71
2022/11/06 00:21:38;;;;;;;;;;;;;;;4.68;53.01;95640.03;4993020;28;20362;-70
2022/11/06 00:24:05;;;;;;;;;;;;;;;4.81;51.71;95640.59;4993460;28;20092;-70
2022/11/06 00:26:30;;;;;;;;;;;;;;;5.27;50.92;95642.56;4985803;28;20000;-70
2022/11/06 00:28:55;;;;;;;;;;;;;;;4.58;52.28;95646.16;4990501;28;19970;-71
2022/11/06 00:31:21;;;;;;;;;;;;;;;4.86;52.75;95637.50;4993368;28;19994;-72
2022/11/06 00:33:46;;;;;;;;;;;;;;;5.13;52.01;95637.78;4991424;28;20366;-71
2022/11/06 00:36:12;;;;;;;;;;;;;;;3.42;57.15;95633.44;4992820;28;20005;-69
2022/11/06 00:38:38;;;;;;;;;;;;;;;3.86;55.34;95634.97;4993394;28;20044;-71
2022/11/06 00:41:04;;;;;;;;;;;;;;;3.30;58.28;95637.94;4991034;28;20381;-71
2022/11/06 00:43:29;;;;;;;;;;;;;;;3.68;56.30;95641.72;4996754;28;20453;-71
2022/11/06 00:45:59;;;;;;;;;;;;;;;3.71;57.18;95645.06;4983422;28;19977;-69
2022/11/06 00:48:25;;;;;;;;;;;;;;;4.86;52.66;95634.06;4983622;28;20096;-69
2022/11/06 00:50:51;;;;;;;;;;;;;;;4.52;55.44;95633.53;4983235;28;19990;-71
2022/11/06 00:53:16;;;;;;;;;;;;;;;5.14;51.93;95629.69;4991614;28;19984;-71
2022/11/06 00:55:41;;;;;;;;;;;;;;;4.40;53.54;95638.13;4987894;28;20081;-71
2022/11/06 00:58:06;;;;;;;;;;;;;;;5.27;51.54;95629.38;4992899;28;20272;-69
2022/11/06 01:00:32;;;;;;;;;;;;;;;5.41;51.26;95629.91;4988536;28;20072;-70
2022/11/06 01:02:57;;;;;;;;;;;;;;;4.20;54.24;95629.34;4998641;28;20083;-71
2022/11/06 01:05:22;;;;;;;;;;;;;;;5.02;52.21;95629.00;4999448;28;19970;-71
2022/11/06 01:07:48;;;;;;;;;;;;;;;5.04;51.59;95629.69;4988205;28;20248;-70
2022/11/06 01:10:14;;;;;;;;;;;;;;;3.31;57.34;95639.63;4985624;28;19982;-70
2022/11/06 01:12:39;;;;;;;;;;;;;;;4.25;54.63;95644.75;4988942;28;20018;-71
2022/11/06 01:15:04;;;;;;;;;;;;;;;5.07;53.55;95633.91;4992177;28;20028;-70
2022/11/06 01:17:30;;;;;;;;;;;;;;;5.08;52.15;95632.91;4993446;28;19974;-69
2022/11/06 01:19:55;;;;;;;;;;;;;;;4.56;53.45;95631.44;4990130;28;19994;-70
2022/11/06 01:22:20;;;;;;;;;;;;;;;5.24;51.34;95636.78;4990635;28;19996;-71
2022/11/06 01:24:46;;;;;;;;;;;;;;;4.16;54.75;95641.13;4988672;28;20633;-69
2022/11/06 01:27:11;;;;;;;;;;;;;;;3.32;55.71;95638.66;4991632;28;19990;-70
2022/11/06 01:29:36;;;;;;;;;;;;;;;4.64;53.71;95634.22;4990163;28;20467;-72
2022/11/06 01:32:01;;;;;;;;;;;;;;;5.08;53.62;95633.75;4988544;28;20445;-71
2022/11/06 01:34:26;;;;;;;;;;;;;;;5.66;51.25;95633.69;4989937;28;20505;-69
2022/11/06 01:36:52;;;;;;;;;;;;;;;5.77;50.44;95623.88;4992850;28;20273;-70
2022/11/06 01:39:17;;;;;;;;;;;;;;;6.04;49.69;95614.25;4990534;28;20501;-71
2022/11/06 01:41:46;;;;;;;;;;;;;;;5.88;49.96;95613.09;4991079;28;19990;-71
2022/11/06 01:44:30;;;;;;;;;;;;;;;5.14;53.03;95610.41;4986356;28;19998;-70
2022/11/06 01:46:56;;;;;;;;;;;;;;;5.62;51.47;95611.19;4996393;28;20385;-71
2022/11/06 01:49:21;;;;;;;;;;;;;;;5.95;49.93;95616.81;4996917;28;19974;-70
2022/11/06 01:51:50;;;;;;;;;;;;;;;5.65;49.91;95604.78;4983278;28;20001;-71
2022/11/06 01:54:16;;;;;;;;;;;;;;;5.35;51.67;95599.63;4987199;28;20032;-69
2022/11/06 01:56:41;;;;;;;;;;;;;;;4.05;55.59;95592.03;5005151;28;19967;-70
2022/11/06 01:59:07;;;;;;;;;;;;;;;4.90;53.48;95591.41;4995831;28;20001;-70
2022/11/06 02:01:33;;;;;;;;;;;;;;;5.64;50.59;95590.72;4995840;28;20415;-70
2022/11/06 02:04:04;;;;;;;;;;;;;;;5.88;50.37;95593.81;4997758;28;19997;-70
2022/11/06 02:06:30;;;;;;;;;;;;;;;6.06;49.44;95586.69;5029891;28;20021;-69
2022/11/06 02:08:55;;;;;;;;;;;;;;;6.28;49.00;95594.34;5002580;28;20424;-71
2022/11/06 02:11:20;;;;;;;;;;;;;;;6.13;49.41;95593.03;4998778;28;19996;-72
2022/11/06 02:14:02;;;;;;;;;;;;;;;5.43;50.59;95594.44;5028379;28;20589;-71
2022/11/06 02:16:37;;;;;;;;;;;;;;;4.59;53.27;95586.31;4995766;28;19986;-71
2022/11/06 02:19:02;;;;;;;;;;;;;;;4.90;52.91;95585.31;4996983;28;19987;-70
2022/11/06 02:21:43;;;;;;;;;;;;;;;4.30;54.16;95590.66;4995495;28;19978;-69
2022/11/06 02:24:11;;;;;;;;;;;;;;;5.17;51.51;95587.19;5000570;28;20532;-71
2022/11/06 02:26:56;;;;;;;;;;;;;;;5.56;50.61;95585.34;4998501;28;20591;-70
2022/11/06 02:29:23;;;;;;;;;;;;;;;4.27;54.19;95587.47;4994953;28;19977;-71
2022/11/06 02:31:49;;;;;;;;;;;;;;;4.83;52.91;95579.78;5024054;28;19993;-71
2022/11/06 02:34:15;;;;;;;;;;;;;;;4.82;52.02;95567.53;4999682;28;20408;-69
2022/11/06 02:36:46;;;;;;;;;;;;;;;5.21;51.18;95561.34;4997128;28;19977;-70
2022/11/06 02:39:13;;;;;;;;;;;;;;;5.70;50.96;95561.09;4991614;28;19986;-69
2022/11/06 02:41:39;;;;;;;;;;;;;;;5.81;49.65;95572.41;5022921;28;20076;-71
2022/11/06 02:44:05;;;;;;;;;;;;;;;5.16;50.75;95568.84;4998104;28;20000;-69
2022/11/06 02:46:35;;;;;;;;;;;;;;;5.60;50.24;95570.88;4998333;28;19986;-69
2022/11/06 02:49:05;;;;;;;;;;;;;;;4.68;52.70;95563.53;4995482;28;20089;-71
2022/11/06 02:51:32;;;;;;;;;;;;;;;4.79;51.73;95557.25;4991819;28;20491;-69
2022/11/06 02:53:57;;;;;;;;;;;;;;;4.80;52.06;95575.59;4999115;28;19974;-70
2022/11/06 02:56:24;;;;;;;;;;;;;;;4.55;53.40;95577.88;5000215;28;19989;-70
2022/11/06 02:59:03;;;;;;;;;;;;;;;4.51;53.32;95584.41;4995542;28;20025;-69
2022/11/06 03:01:58;;;;;;;;;;;;;;;4.29;53.91;95588.16;4993244;28;19965;-71
2022/11/06 03:04:26;;;;;;;;;;;;;;;4.40;53.16;95574.84;5001891;28;20211;-71
2022/11/06 03:07:02;;;;;;;;;;;;;;;5.05;51.50;95575.97;4977117;28;20453;-71
2022/11/06 03:09:28;;;;;;;;;;;;;;;5.40;50.97;95573.59;4976679;28;20258;-69
2022/11/06 03:11:58;;;;;;;;;;;;;;;3.05;58.12;95590.06;4978164;28;19997;-71
2022/11/06 03:14:32;;;;;;;;;;;;;;;4.26;54.06;95577.91;4976412;28;20212;-70
2022/11/06 03:16:58;;;;;;;;;;;;;;;4.83;52.96;95580.59;4976041;28;20349;-69
2022/11/06 03:19:29;;;;;;;;;;;;;;;5.06;51.24;95579.44;4977194;28;19989;-71
2022/11/06 03:21:55;;;;;;;;;;;;;;;5.13;51.06;95580.53;4982173;28;20423;-71
2022/11/06 03:24:30;;;;;;;;;;;;;;;5.41;50.68;95580.53;4977675;28;19998;-71
2022/11/06 03:26:55;;;;;;;;;;;;;;;5.24;50.95;95576.06;4977420;28;20085;-71
2022/11/06 03:29:22;;;;;;;;;;;;;;;4.38;53.64;95575.94;5005223;28;20439;-69
2022/11/06 03:31:52;;;;;;;;;;;;;;;5.06;51.92;95572.38;4973682;28;20080;-71
2022/11/06 03:34:27;;;;;;;;;;;;;;;4.54;52.71;95570.94;4976817;28;19962;-70
2022/11/06 03:36:55;;;;;;;;;;;;;;;5.02;51.00;95562.19;4978752;28;19970;-70
2022/11/06 03:39:23;;;;;;;;;;;;;;;4.33;53.81;95565.81;5007872;28;19987;-70
2022/11/06 03:41:49;;;;;;;;;;;;;;;3.87;55.27;95571.63;5008222;28;20052;-70
2022/11/06 03:44:16;;;;;;;;;;;;;;;4.59;52.46;95567.84;4977218;28;20025;-71
2022/11/06 03:46:42;;;;;;;;;;;;;;;3.01;57.03;95570.25;4971918;28;20447;-72
2022/11/06 03:49:09;;;;;;;;;;;;;;;4.09;53.91;95558.34;5008729;28;20218;-70
2022/11/06 03:51:40;;;;;;;;;;;;;;;4.65;53.94;95542.72;4975024;28;19990;-71
2022/11/06 03:54:05;;;;;;;;;;;;;;;5.30;51.90;95534.06;4980679;28;20061;-71
2022/11/06 03:56:34;;;;;;;;;;;;;;;5.66;50.72;95541.22;4974814;28;20169;-71
2022/11/06 03:59:00;;;;;;;;;;;;;;;5.88;51.01;95536.47;4975067;28;19999;-70
2022/11/06 04:01:26;;;;;;;;;;;;;;;5.88;49.84;95541.75;4970052;28;20242;-69
2022/11/06 04:03:56;;;;;;;;;;;;;;;6.10;49.18;95535.22;4984407;28;19997;-70
2022/11/06 04:06:26;;;;;;;;;;;;;;;6.21;48.50;95517.44;4996353;28;19970;-71
2022/11/06 04:14:19;;;;;;;;;;;;;;;5.44;50.48;95543.28;4987275;28;19985;-69
2022/11/06 04:16:45;;;;;;;;;;;;;;;5.81;50.19;95538.06;4991973;28;19965;-71
2022/11/06 04:19:15;;;;;;;;;;;;;;;5.98;48.79;95560.19;4993074;28;19996;-69
2022/11/06 04:21:50;;;;;;;;;;;;;;;5.47;49.96;95569.41;4991633;28;20690;-70
2022/11/06 04:27:03;;;;;;;;;;;;;;;4.47;53.61;95558.44;4990378;28;20390;-70
2022/11/06 04:29:47;;;;;;;;;;;;;;;3.07;56.67;95579.41;4991304;28;19978;-70
2022/11/06 04:32:16;;;;;;;;;;;;;;;3.42;56.77;95580.78;4990602;28;20353;-69
2022/11/06 04:34:45;;;;;;;;;;;;;;;4.77;52.08;95575.06;4990443;28;19994;-71
2022/11/06 04:37:13;;;;;;;;;;;;;;;4.21;54.97;95566.94;4990631;28;20009;-69
2022/11/06 04:39:38;;;;;;;;;;;;;;;5.11;52.02;95558.75;4987257;28;19994;-71
2022/11/06 04:42:03;;;;;;;;;;;;;;;5.43;50.22;95556.63;4989968;28;20020;-69
2022/11/06 04:44:30;;;;;;;;;;;;;;;4.34;53.45;95559.56;4989527;28;20397;-71
2022/11/06 04:47:14;;;;;;;;;;;;;;;4.75;51.41;95574.34;4990960;28;20072;-71
2022/11/06 04:49:39;;;;;;;;;;;;;;;5.32;50.49;95570.88;4988321;28;20043;-70
2022/11/06 04:52:05;;;;;;;;;;;;;;;4.87;51.92;95562.69;4992975;28;20490;-69
2022/11/06 04:54:30;;;;;;;;;;;;;;;4.50;53.40;95552.91;4986549;28;19990;-71
2022/11/06 04:56:57;;;;;;;;;;;;;;;4.93;51.43;95553.38;4993435;28;19969;-69
2022/11/06 04:59:22;;;;;;;;;;;;;;;4.41;53.08;95558.03;4983462;28;19994;-69
2022/11/06 05:01:48;;;;;;;;;;;;;;;4.76;52.77;95558.38;4990538;28;20399;-69
2022/11/06 05:04:13;;;;;;;;;;;;;;;4.89;51.57;95557.25;4990824;28;19998;-70
2022/11/06 05:06:38;;;;;;;;;;;;;;;5.08;51.40;95551.09;4988822;28;20263;-70
2022/11/06 05:09:03;;;;;;;;;;;;;;;5.01;51.91;95545.56;4992435;28;20615;-69
2022/11/06 05:11:29;;;;;;;;;;;;;;;5.32;50.64;95540.03;4989689;28;20093;-70
2022/11/06 05:13:54;;;;;;;;;;;;;;;5.17;50.62;95537.03;4994770;28;20197;-70
2022/11/06 05:16:19;;;;;;;;;;;;;;;5.26;51.63;95534.50;4989362;28;20292;-71
2022/11/06 05:18:44;;;;;;;;;;;;;;;5.76;50.25;95542.97;4992422;28;19998;-70
2022/11/06 05:23:53;;;;;;;;;;;;;;;5.68;49.55;95531.34;4983161;28;20012;-69
2022/11/06 05:26:19;;;;;;;;;;;;;;;5.91;49.24;95519.53;4985322;28;20382;-70
2022/11/06 05:28:44;;;;;;;;;;;;;;;5.90;49.71;95512.56;4989976;28;20060;-71
2022/11/06 05:31:09;;;;;;;;;;;;;;;5.70;50.10;95515.34;4988938;28;19986;-70
2022/11/06 05:33:35;;;;;;;;;;;;;;;5.64;50.59;95506.19;4988618;28;19974;-69
2022/11/06 05:36:01;;;;;;;;;;;;;;;4.62;51.13;95512.19;4992771;28;19989;-69
2022/11/06 05:38:26;;;;;;;;;;;;;;;4.93;52.18;95506.69;4984744;28;20040;-71
2022/11/06 05:40:51;;;;;;;;;;;;;;;4.95;51.68;95493.34;4990154;28;20210;-71
2022/11/06 05:43:16;;;;;;;;;;;;;;;5.46;50.48;95490.34;4994698;28;20461;-69
2022/11/06 05:45:42;;;;;;;;;;;;;;;5.68;49.91;95482.97;4990066;28;20403;-70
2022/11/06 05:48:07;;;;;;;;;;;;;;;6.00;49.46;95471.03;4999484;28;20374;-70
2022/11/06 05:50:32;;;;;;;;;;;;;;;5.16;51.05;95482.59;4985871;28;20077;-71
2022/11/06 05:52:58;;;;;;;;;;;;;;;3.83;53.64;95478.06;4983595;28;20344;-71
2022/11/06 05:55:23;;;;;;;;;;;;;;;4.90;52.95;95480.59;4989212;28;20348;-69
2022/11/06 05:57:49;;;;;;;;;;;;;;;5.11;51.73;95474.28;4990288;28;19970;-70
2022/11/06 06:00:14;;;;;;;;;;;;;;;5.06;52.30;95474.72;4990278;28;20424;-70
2022/11/06 06:02:40;;;;;;;;;;;;;;;5.53;51.02;95462.34;4991143;28;20002;-71
2022/11/06 06:05:05;;;;;;;;;;;;;;;5.83;49.79;95454.19;4991322;28;20272;-70
2022/11/06 06:07:31;;;;;;;;;;;;;;;5.44;50.69;95453.50;4990625;28;20132;-69
2022/11/06 06:09:56;;;;;;;;;;;;;;;5.71;50.11;95440.38;4990544;28;20460;-70
2022/11/06 06:12:25;;;;;;;;;;;;;;;5.15;51.28;95451.91;4989332;28;19993;-69
2022/11/06 06:14:50;;;;;;;;;;;;;;;5.61;50.05;95448.38;4992812;28;19998;-71
2022/11/06 06:17:15;;;;;;;;;;;;;;;5.84;49.70;95461.13;4995920;28;20060;-71
2022/11/06 06:19:41;;;;;;;;;;;;;;;5.99;48.93;95454.34;4990501;28;20092;-71
2022/11/06 06:22:06;;;;;;;;;;;;;;;6.10;48.83;95439.22;5000410;28;19996;-71
2022/11/06 06:24:31;;;;;;;;;;;;;;;6.24;48.62;95446.59;4995434;28;20040;-71
2022/11/06 06:26:56;;;;;;;;;;;;;;;6.28;48.34;95433.88;5001889;28;19993;-70
2022/11/06 06:29:22;;;;;;;;;;;;;;;5.94;49.54;95440.75;4995839;28;19982;-69
2022/11/06 06:31:48;;;;;;;;;;;;;;;5.67;49.84;95429.31;4990450;28;19990;-71
2022/11/06 06:34:14;;;;;;;;;;;;;;;5.45;49.53;95430.59;4987978;28;20025;-70
2022/11/06 06:36:39;;;;;;;;;;;;;;;6.16;48.76;95433.34;4988090;28;20029;-71
2022/11/06 06:39:04;;;;;;;;;;;;;;;5.90;49.56;95434.13;4995365;28;20404;-71
2022/11/06 06:41:29;;;;;;;;;;;;;;;5.87;49.44;95434.41;4995698;28;20024;-70
2022/11/06 06:43:55;;;;;;;;;;;;;;;5.99;49.30;95424.44;4992971;28;19994;-69
2022/11/06 06:46:20;;;;;;;;;;;;;;;5.56;49.38;95425.09;5000313;28;20025;-71
2022/11/06 06:48:45;;;;;;;;;;;;;;;6.12;49.29;95424.03;5000345;28;19969;-71
2022/11/06 06:51:10;;;;;;;;;;;;;;;6.33;48.55;95433.44;5000514;28;20000;-69
2022/11/06 06:53:36;;;;;;;;;;;;;;;6.29;48.57;95432.91;4988364;28;19970;-71
2022/11/06 06:56:01;;;;;;;;;;;;;;;5.93;49.08;95425.06;4988336;28;20560;-70
2022/11/06 06:58:27;;;;;;;;;;;;;;;6.01;48.84;95426.94;4993581;28;19985;-71
2022/11/06 07:00:52;;;;;;;;;;;;;;;6.02;48.57;95425.94;4994210;28;19974;-69
2022/11/06 07:03:17;;;;;;;;;;;;;;;5.89;49.42;95416.63;4994645;28;20005;-71
2022/11/06 07:05:42;;;;;;;;;;;;;;;6.17;48.46;95410.34;4991526;28;19970;-70
2022/11/06 07:08:08;;;;;;;;;;;;;;;6.30;47.66;95413.44;4991987;28;20005;-69
2022/11/06 07:10:33;;;;;;;;;;;;;;;5.87;48.47;95410.63;4990843;28;20305;-71
2022/11/06 07:13:02;;;;;;;;;;;;;;;6.08;48.34;95409.47;4996464;28;19970;-71
2022/11/06 07:15:27;;;;;;;;;;;;;;;5.47;49.92;95420.69;5001476;28;20032;-71
2022/11/06 07:17:52;;;;;;;;;;;;;;;5.91;49.41;95408.53;4996040;28;20308;-70
2022/11/06 07:20:17;;;;;;;;;;;;;;;6.17;48.45;95413.00;5001397;28;20000;-71
2022/11/06 07:22:43;;;;;;;;;;;;;;;5.90;49.16;95406.84;4995152;28;20217;-69
2022/11/06 07:25:08;;;;;;;;;;;;;;;6.22;48.43;95400.97;4994324;28;20112;-70
2022/11/06 07:27:33;;;;;;;;;;;;;;;6.04;48.22;95411.59;4985850;28;19985;-72
2022/11/06 07:29:59;;;;;;;;;;;;;;;5.36;49.55;95419.13;4990444;28;20165;-71
2022/11/06 07:32:24;;;;;;;;;;;;;;;5.89;49.20;95413.13;4995404;28;19994;-71
2022/11/06 07:34:50;;;;;;;;;;;;;;;6.14;48.58;95414.13;4999605;28;20417;-70
2022/11/06 07:37:15;;;;;;;;;;;;;;;5.89;49.69;95419.25;4998447;28;20095;-71
2022/11/06 07:39:40;;;;;;;;;;;;;;;5.70;48.55;95422.88;4987008;28;20029;-71
2022/11/06 07:42:05;;;;;;;;;;;;;;;5.59;49.35;95427.44;4992077;28;20001;-71
2022/11/06 07:44:31;;;;;;;;;;;;;;;5.77;48.57;95438.94;4986849;28;20457;-70
2022/11/06 07:46:56;;;;;;;;;;;;;;;5.84;49.60;95440.00;4992754;28;19998;-71
2022/11/06 07:49:21;;;;;;;;;;;;;;;6.05;48.66;95442.31;4995122;28;19978;-71
2022/11/06 07:51:46;;;;;;;;;;;;;;;5.99;48.36;95448.25;4993221;28;20005;-71
2022/11/06 07:54:11;;;;;;;;;;;;;;;6.21;47.65;95449.53;4992703;28;20119;-69
2022/11/06 07:56:37;;;;;;;;;;;;;;;5.95;48.28;95449.53;4993992;28;20277;-71
2022/11/06 07:59:02;;;;;;;;;;;;;;;5.62;50.15;95452.72;4992171;28;20390;-72
2022/11/06 08:01:27;;;;;;;;;;;;;;;5.56;50.82;95448.00;4990656;28;20053;-71
2022/11/06 08:03:52;;;;;;;;;;;;;;;6.10;49.12;95440.06;4994273;28;20064;-69
2022/11/06 08:06:18;;;;;;;;;;;;;;;5.43;50.25;95454.50;4994324;28;20012;-70
2022/11/06 08:08:43;;;;;;;;;;;;;;;5.88;49.46;95433.44;4990065;28;19975;-71
2022/11/06 08:11:09;;;;;;;;;;;;;;;6.28;48.49;95427.75;4989476;28;19990;-72
2022/11/06 08:13:34;;;;;;;;;;;;;;;5.97;48.84;95432.53;4990709;28;20204;-72
2022/11/06 08:16:03;;;;;;;;;;;;;;;6.02;47.81;95426.75;4990221;28;20370;-72
2022/11/06 08:18:28;;;;;;;;;;;;;;;6.25;48.74;95420.97;4993248;28;20296;-71
2022/11/06 08:20:54;;;;;;;;;;;;;;;6.36;47.70;95417.25;4992620;28;19970;-70
2022/11/06 08:23:19;;;;;;;;;;;;;;;6.33;48.44;95422.84;4993431;28;20002;-70
2022/11/06 08:25:44;;;;;;;;;;;;;;;6.44;47.27;95419.09;4991027;28;19989;-71
2022/11/06 08:28:09;;;;;;;;;;;;;;;6.08;49.07;95417.38;4993145;28;19990;-71
2022/11/06 08:30:35;;;;;;;;;;;;;;;6.23;48.11;95418.47;4993532;28;20132;-70
2022/11/06 08:33:01;;;;;;;;;;;;;;;6.21;46.92;95412.53;4989954;28;19974;-71
2022/11/06 08:35:26;;;;;;;;;;;;;;;5.84;48.61;95411.78;4993667;28;20025;-72
2022/11/06 08:37:51;;;;;;;;;;;;;;;5.38;50.53;95413.69;4993169;28;19974;-72
2022/11/06 08:40:16;;;;;;;;;;;;;;;5.27;50.70;95412.91;4992076;28;20498;-71
2022/11/06 08:42:42;;;;;;;;;;;;;;;6.09;48.18;95417.25;4992285;28;20501;-69
2022/11/06 08:45:07;;;;;;;;;;;;;;;6.57;47.79;95406.34;4991100;28;20536;-71
2022/11/06 08:47:33;;;;;;;;;;;;;;;6.02;47.79;95418.84;4992446;28;20005;-69
2022/11/06 08:49:58;;;;;;;;;;;;;;;4.54;51.15;95422.44;4991567;28;20048;-72
2022/11/06 08:52:23;;;;;;;;;;;;;;;6.01;49.29;95413.72;4997235;28;19985;-70
2022/11/06 08:54:49;;;;;;;;;;;;;;;5.90;48.78;95405.06;4993433;28;19990;-72
2022/11/06 08:57:14;;;;;;;;;;;;;;;6.52;47.74;95399.84;4991565;28;19981;-71
2022/11/06 08:59:40;;;;;;;;;;;;;;;6.73;47.57;95400.28;4991701;28;19986;-69
2022/11/06 09:02:05;;;;;;;;;;;;;;;6.11;48.58;95404.72;4987257;28;20148;-71
2022/11/06 09:04:30;;;;;;;;;;;;;;;6.52;47.51;95402.50;4997411;28;20432;-72
2022/11/06 09:06:56;;;;;;;;;;;;;;;6.74;47.08;95391.34;4989805;28;19997;-70
2022/11/06 09:09:22;;;;;;;;;;;;;;;6.67;46.54;95397.44;4996032;28;20027;-70
2022/11/06 09:11:47;;;;;;;;;;;;;;;6.75;47.26;95381.59;4991310;28;19990;-69
2022/11/06 09:14:12;;;;;;;;;;;;;;;7.13;46.59;95386.50;4996069;28;19966;-72
2022/11/06 09:16:37;;;;;;;;;;;;;;;7.43;45.09;95383.41;4992167;28;20267;-72
2022/11/06 09:19:03;;;;;;;;;;;;;;;6.56;46.80;95385.31;4990368;28;20005;-69
2022/11/06 09:21:28;;;;;;;;;;;;;;;7.74;45.11;95377.47;4990741;28;19980;-71
2022/11/06 09:23:53;;;;;;;;;;;;;;;6.07;48.78;95379.56;4991550;28;20351;-71
2022/11/06 09:26:18;;;;;;;;;;;;;;;7.05;47.54;95367.94;4993958;28;19969;-72
2022/11/06 09:28:44;;;;;;;;;;;;;;;6.71;47.69;95365.22;4994113;28;20057;-70
2022/11/06 09:31:10;;;;;;;;;;;;;;;7.34;46.26;95361.41;4993493;28;19986;-71
2022/11/06 09:33:35;;;;;;;;;;;;;;;7.09;45.95;95351.59;4992657;28;20415;-71
2022/11/06 09:36:04;;;;;;;;;;;;;;;7.70;45.46;95349.63;4988402;28;19994;-72
2022/11/06 09:38:29;;;;;;;;;;;;;;;7.83;46.24;95346.53;4996740;28;20039;-71
2022/11/06 09:40:58;;;;;;;;;;;;;;;8.14;44.45;95349.31;4993837;28;20255;-70
2022/11/06 09:43:29;;;;;;;;;;;;;;;8.30;43.95;95356.38;4987399;28;19997;-70
2022/11/06 09:45:55;;;;;;;;;;;;;;;8.48;43.76;95341.22;4991710;28;19966;-71
2022/11/06 09:48:23;;;;;;;;;;;;;;;8.13;44.82;95349.47;4993651;28;19993;-71
2022/11/06 09:50:50;;;;;;;;;;;;;;;8.40;44.55;95337.59;4991459;28;19998;-71
2022/11/06 09:53:17;;;;;;;;;;;;;;;8.81;42.22;95335.78;4992026;28;20030;-70
2022/11/06 09:55:43;;;;;;;;;;;;;;;8.27;42.73;95340.78;4990285;28;19986;-71
2022/11/06 09:58:11;;;;;;;;;;;;;;;8.33;44.20;95343.78;4994582;28;20413;-71
2022/11/06 10:00:37;;;;;;;;;;;;;;;8.68;43.11;95334.50;4989609;28;20029;-72
2022/11/06 10:03:04;;;;;;;;;;;;;;;7.18;45.29;95331.25;4990925;28;20521;-71
2022/11/06 10:05:30;;;;;;;;;;;;;;;8.47;43.99;95328.97;4992055;28;19978;-72
2022/11/06 10:08:03;;;;;;;;;;;;;;;9.13;42.16;95327.84;4991126;28;19994;-70
2022/11/06 10:10:46;;;;;;;;;;;;;;;9.50;42.84;95323.59;4991433;28;19994;-71
2022/11/06 10:13:23;;;;;;;;;;;;;;;9.81;40.37;95317.34;4991440;28;20369;-69
2022/11/06 10:15:56;;;;;;;;;;;;;;;9.18;40.81;95328.16;4992843;28;19986;-69
2022/11/06 10:18:50;;;;;;;;;;;;;;;9.06;41.12;95322.41;4988691;28;19963;-72
2022/11/06 10:21:18;;;;;;;;;;;;;;;9.24;40.74;95314.16;4975775;28;19970;-70
2022/11/06 10:23:47;;;;;;;;;;;;;;;9.16;42.11;95308.91;4993604;28;19998;-69
2022/11/06 10:26:25;;;;;;;;;;;;;;;9.39;40.57;95308.06;4988022;28;20183;-70
2022/11/06 10:28:54;;;;;;;;;;;;;;;9.48;42.41;95309.66;4993201;28;20250;-71
2022/11/06 10:31:49;;;;;;;;;;;;;;;9.82;40.40;95313.69;4993407;28;19996;-71
2022/11/06 10:34:24;;;;;;;;;;;;;;;9.00;40.92;95304.50;4976973;28;20198;-71
2022/11/06 10:36:49;;;;;;;;;;;;;;;7.48;44.02;95307.75;4987603;28;20520;-71
2022/11/06 10:39:16;;;;;;;;;;;;;;;8.88;41.44;95304.88;4994240;28;20270;-71
2022/11/06 10:41:41;;;;;;;;;;;;;;;9.85;39.95;95299.19;4993491;28;20097;-71
2022/11/06 10:44:13;;;;;;;;;;;;;;;10.14;39.75;95286.97;4989290;28;20431;-71
2022/11/06 10:46:39;;;;;;;;;;;;;;;10.66;38.40;95278.19;4987632;28;20014;-72
2022/11/06 10:49:06;;;;;;;;;;;;;;;11.04;37.68;95280.66;4997536;28;20532;-72
2022/11/06 10:51:46;;;;;;;;;;;;;;;10.11;38.47;95282.00;4992562;28;20040;-71
2022/11/06 10:54:25;;;;;;;;;;;;;;;11.16;37.56;95272.19;4995918;28;19995;-72
2022/11/06 10:56:50;;;;;;;;;;;;;;;10.95;37.59;95266.63;4994738;28;20053;-72
2022/11/06 10:59:15;;;;;;;;;;;;;;;10.91;36.07;95261.88;4998582;28;20077;-71
2022/11/06 11:01:40;;;;;;;;;;;;;;;10.89;36.29;95262.06;4991285;28;19966;-71
2022/11/06 11:04:05;;;;;;;;;;;;;;;10.57;36.89;95250.88;5000327;28;20244;-70
2022/11/06 11:06:31;;;;;;;;;;;;;;;11.16;36.63;95250.88;4998049;28;20168;-72
2022/11/06 11:08:56;;;;;;;;;;;;;;;10.85;36.57;95245.63;4993339;28;19974;-70
2022/11/06 11:11:22;;;;;;;;;;;;;;;11.35;37.23;95242.25;4996923;28;20485;-70
2022/11/06 11:13:48;;;;;;;;;;;;;;;11.66;36.27;95244.75;4996276;28;20515;-72
2022/11/06 11:16:23;;;;;;;;;;;;;;;11.68;35.05;95238.19;4994660;28;19992;-72
2022/11/06 11:18:49;;;;;;;;;;;;;;;11.41;33.21;95229.97;4998808;28;19992;-70
2022/11/06 11:21:15;;;;;;;;;;;;;;;11.28;34.89;95209.38;4995818;28;20269;-72
2022/11/06 11:23:40;;;;;;;;;;;;;;;11.25;35.02;95196.44;4993837;28;20160;-72
2022/11/06 11:26:17;;;;;;;;;;;;;;;11.02;35.19;95194.81;4997281;28;19974;-72
2022/11/06 11:28:42;;;;;;;;;;;;;;;10.79;34.60;95189.66;4993770;28;20004;-71
2022/11/06 11:31:08;;;;;;;;;;;;;;;10.88;33.52;95183.16;4987887;28;20186;-71
2022/11/06 11:33:33;;;;;;;;;;;;;;;10.46;36.37;95178.47;4991532;28;20331;-72
2022/11/06 11:35:58;;;;;;;;;;;;;;;11.01;33.00;95171.81;4987766;28;20477;-72
2022/11/06 11:38:24;;;;;;;;;;;;;;;10.80;35.04;95164.66;4985418;28;20132;-71
2022/11/06 11:40:50;;;;;;;;;;;;;;;11.44;32.78;95152.31;4986417;28;19970;-70
2022/11/06 11:43:21;;;;;;;;;;;;;;;11.56;35.25;95151.78;4986588;28;20381;-72
2022/11/06 11:46:05;;;;;;;;;;;;;;;12.09;33.13;95142.41;4990983;28;19974;-72
2022/11/06 11:48:40;;;;;;;;;;;;;;;11.82;35.46;95137.75;4988576;28;19990;-71
2022/11/06 11:51:24;;;;;;;;;;;;;;;12.57;31.61;95108.69;4988963;28;19989;-71
2022/11/06 11:53:50;;;;;;;;;;;;;;;13.04;33.30;95087.34;4991273;28;20020;-70
2022/11/06 11:56:17;;;;;;;;;;;;;;;13.93;29.93;95104.84;4987668;28;20016;-73
2022/11/06 11:58:52;;;;;;;;;;;;;;;15.01;28.35;95111.47;4987348;28;20025;-71
2022/11/06 12:01:18;;;;;;;;;;;;;;;15.80;26.17;95124.34;4995405;28;20059;-72
2022/11/06 12:03:44;;;;;;;;;;;;;;;15.54;26.04;95112.81;4999183;28;20676;-72
2022/11/06 12:06:13;;;;;;;;;;;;;;;17.12;24.06;95106.09;4986336;28;20467;-73
2022/11/06 12:08:38;;;;;;;;;;;;;;;15.59;25.11;95104.16;4991856;28;19998;-72
2022/11/06 12:11:04;;;;;;;;;;;;;;;15.34;25.70;95126.44;4991033;28;19994;-70
2022/11/06 12:13:29;;;;;;;;;;;;;;;14.64;27.12;95107.56;4993738;28;19981;-72
2022/11/06 12:15:56;;;;;;;;;;;;;;;15.00;29.16;95096.41;4987615;28;20085;-72
2022/11/06 12:18:22;;;;;;;;;;;;;;;14.83;28.89;95075.53;4991638;28;20005;-70
2022/11/06 12:20:51;;;;;;;;;;;;;;;16.23;25.11;95103.81;4992590;28;19984;-69
2022/11/06 12:23:39;;;;;;;;;;;;;;;16.75;24.27;95099.81;4990688;28;20001;-69
2022/11/06 12:26:05;;;;;;;;;;;;;;;16.55;24.72;95104.69;4984165;28;20561;-69
2022/11/06 12:28:30;;;;;;;;;;;;;;;17.54;23.80;95097.91;4993217;28;20084;-69
2022/11/06 12:31:00;;;;;;;;;;;;;;;16.90;23.67;95090.50;4989044;28;19989;-69
2022/11/06 12:33:25;;;;;;;;;;;;;;;17.79;23.25;95080.66;4990117;28;20606;-69
2022/11/06 12:35:58;;;;;;;;;;;;;;;16.43;23.90;95085.81;4984960;28;20053;-69
2022/11/06 12:38:43;;;;;;;;;;;;;;;16.36;25.84;95080.56;4988063;28;19992;-69
2022/11/06 12:41:09;;;;;;;;;;;;;;;14.96;25.80;95088.81;4991213;28;20005;-68
2022/11/06 12:43:44;;;;;;;;;;;;;;;15.05;27.58;95093.91;4991675;28;20340;-69
2022/11/06 12:46:10;;;;;;;;;;;;;;;14.80;26.35;95081.31;4991779;28;19976;-69
2022/11/06 12:48:46;;;;;;;;;;;;;;;14.38;29.21;95063.84;4992903;28;20430;-70
2022/11/06 12:51:18;;;;;;;;;;;;;;;14.23;27.59;95055.31;4987107;28;20088;-70
2022/11/06 12:53:55;;;;;;;;;;;;;;;13.73;28.58;95043.41;4986996;28;19970;-70
2022/11/06 12:56:22;;;;;;;;;;;;;;;13.34;28.22;95040.63;4970002;28;20194;-70
2022/11/06 12:59:06;;;;;;;;;;;;;;;12.83;29.81;95046.44;5018263;28;19994;-71
2022/11/06 13:02:00;;;;;;;;;;;;;;;12.69;30.13;95032.28;4989550;28;20049;-71
2022/11/06 13:04:28;;;;;;;;;;;;;;;12.58;30.51;95036.34;4986161;28;20022;-71
2022/11/06 13:07:06;;;;;;;;;;;;;;;12.27;30.60;95038.59;4992339;28;20087;-71
2022/11/06 13:09:50;;;;;;;;;;;;;;;11.98;30.57;95032.56;4994414;28;19969;-72